Time;durP1;ratioP1;P1;durP2;ratioP2;P2;SDS_P1;SDS_P2;PMS_P1;PMS_P2;Temp;Humidity;BMP_temperature;BMP_pressure;BME280_temperature;BME280_humidity;BME280_pressure;Samples;Min_cycle;Max_cycle;Signal;HPM_P1;HPM_P2
2024/03/03 00:00:51;;;;;;;0.85;0.85;;;23.10;49.20;;;;;;5022079;28;20594;-43
2024/03/03 00:03:18;;;;;;;0.73;0.70;;;23.10;49.20;;;;;;5017954;28;20056;-40
2024/03/03 00:05:44;;;;;;;1.17;0.95;;;23.10;49.20;;;;;;5019786;28;20037;-41
2024/03/03 00:08:10;;;;;;;0.70;0.70;;;23.10;49.20;;;;;;5034903;28;20076;-41
2024/03/03 00:10:36;;;;;;;1.05;0.90;;;23.10;49.30;;;;;;5028078;28;20124;-38
2024/03/03 00:13:02;;;;;;;1.05;0.80;;;23.00;49.30;;;;;;5004818;28;20857;-40
2024/03/03 00:15:28;;;;;;;1.40;1.00;;;23.00;49.40;;;;;;5009027;28;20050;-41
2024/03/03 00:17:54;;;;;;;1.63;0.90;;;23.00;49.40;;;;;;5008885;28;20030;-40
2024/03/03 00:20:20;;;;;;;1.20;1.00;;;23.10;49.40;;;;;;5031471;28;20037;-37
2024/03/03 00:22:47;;;;;;;1.05;0.95;;;23.10;49.30;;;;;;5019891;28;20034;-39
2024/03/03 00:25:13;;;;;;;0.73;0.73;;;23.10;49.30;;;;;;5017417;28;20046;-40
2024/03/03 00:27:39;;;;;;;0.85;0.80;;;23.00;49.30;;;;;;5029014;28;20080;-40
2024/03/03 00:30:05;;;;;;;1.92;1.10;;;23.00;49.30;;;;;;5034371;28;20441;-40
2024/03/03 00:32:32;;;;;;;1.38;1.10;;;23.00;49.30;;;;;;5036651;28;20037;-40
2024/03/03 00:34:58;;;;;;;2.25;0.90;;;23.00;49.30;;;;;;5041646;28;20060;-41
2024/03/03 00:37:24;;;;;;;1.10;0.90;;;23.00;49.30;;;;;;5083278;28;20048;-41
2024/03/03 00:39:50;;;;;;;1.70;0.90;;;23.00;49.40;;;;;;5084488;28;20074;-39
2024/03/03 00:42:16;;;;;;;1.52;0.95;;;23.00;49.50;;;;;;5083685;28;20485;-41
2024/03/03 00:44:42;;;;;;;1.45;0.80;;;23.00;49.50;;;;;;5076699;28;20040;-40
2024/03/03 00:47:08;;;;;;;1.10;0.80;;;23.00;49.40;;;;;;5084339;28;20036;-41
2024/03/03 00:49:35;;;;;;;0.93;0.82;;;23.00;49.40;;;;;;5083541;28;20041;-41
2024/03/03 00:52:01;;;;;;;2.15;1.05;;;23.00;49.40;;;;;;5083058;28;20481;-39
2024/03/03 00:54:27;;;;;;;1.00;0.90;;;23.00;49.40;;;;;;5083470;28;20036;-40
2024/03/03 00:56:53;;;;;;;1.58;1.10;;;22.90;49.40;;;;;;5084515;28;20088;-40
2024/03/03 00:59:19;;;;;;;1.83;1.10;;;22.90;49.40;;;;;;5077445;28;20028;-40
2024/03/03 01:01:45;;;;;;;1.17;0.95;;;22.90;49.40;;;;;;5080088;28;20032;-40
2024/03/03 01:04:12;;;;;;;1.65;0.80;;;22.90;49.50;;;;;;5082510;28;20032;-38
2024/03/03 01:06:38;;;;;;;1.02;0.93;;;22.90;49.60;;;;;;5064950;28;20125;-40
2024/03/03 01:09:05;;;;;;;1.80;0.98;;;22.90;49.30;;;;;;5083666;28;20028;-40
2024/03/03 01:11:31;;;;;;;1.23;0.80;;;22.90;49.50;;;;;;5083506;28;20069;-39
2024/03/03 01:13:57;;;;;;;1.55;1.00;;;22.90;49.50;;;;;;5083741;28;20051;-41
2024/03/03 01:16:23;;;;;;;1.40;1.00;;;22.90;49.50;;;;;;5082717;28;20020;-40
2024/03/03 01:18:49;;;;;;;1.10;0.90;;;22.90;49.50;;;;;;5083648;28;20410;-42
2024/03/03 01:21:16;;;;;;;1.20;1.10;;;22.90;49.50;;;;;;5083196;28;20036;-41
2024/03/03 01:23:42;;;;;;;0.83;0.83;;;22.80;49.50;;;;;;5055683;28;20645;-41
2024/03/03 01:26:08;;;;;;;1.57;1.00;;;22.80;49.60;;;;;;5080490;28;20063;-41
2024/03/03 01:28:34;;;;;;;1.98;0.95;;;22.90;49.60;;;;;;5076624;28;20084;-41
2024/03/03 01:31:00;;;;;;;2.97;1.00;;;22.90;49.60;;;;;;5083604;28;20142;-40
2024/03/03 01:33:26;;;;;;;1.13;1.02;;;22.90;49.60;;;;;;5082356;28;20047;-38
2024/03/03 01:35:53;;;;;;;1.45;0.75;;;22.90;49.60;;;;;;5078269;28;20486;-40
2024/03/03 01:38:19;;;;;;;1.80;0.90;;;22.80;49.50;;;;;;5082372;28;20024;-40
2024/03/03 01:40:51;;;;;;;1.10;0.70;;;22.80;49.60;;;;;;5083107;28;20028;-41
2024/03/03 01:43:17;;;;;;;1.05;0.90;;;22.80;49.50;;;;;;5082382;28;20037;-41
2024/03/03 01:45:43;;;;;;;1.23;0.80;;;22.80;49.60;;;;;;5076132;28;20036;-40
2024/03/03 01:48:09;;;;;;;2.10;1.20;;;22.80;49.70;;;;;;5083328;28;20124;-39
2024/03/03 01:50:35;;;;;;;1.27;1.17;;;22.80;49.50;;;;;;5064852;28;20035;-41
2024/03/03 01:53:03;;;;;;;1.77;1.00;;;22.80;49.50;;;;;;5060749;28;20040;-41
2024/03/03 01:55:29;;;;;;;1.88;0.95;;;22.80;49.50;;;;;;5061890;28;20039;-41
2024/03/03 01:58:00;;;;;;;0.82;0.77;;;22.80;49.50;;;;;;5065193;28;20035;-41
2024/03/03 02:00:29;;;;;;;1.10;0.90;;;22.80;49.60;;;;;;5047944;28;20029;-41
2024/03/03 02:02:55;;;;;;;1.63;0.98;;;22.70;49.60;;;;;;5083117;28;20048;-38
2024/03/03 02:05:21;;;;;;;2.05;1.10;;;22.70;49.60;;;;;;5076792;28;20055;-41
2024/03/03 02:07:47;;;;;;;1.90;1.10;;;22.70;49.60;;;;;;5064699;28;20044;-41
2024/03/03 02:10:15;;;;;;;0.95;0.80;;;22.70;49.60;;;;;;5064442;28;20029;-40
2024/03/03 02:12:45;;;;;;;1.15;0.90;;;22.80;49.60;;;;;;5065314;28;20035;-41
2024/03/03 02:15:11;;;;;;;1.33;1.20;;;22.70;49.50;;;;;;5080168;28;20060;-39
2024/03/03 02:17:37;;;;;;;0.80;0.80;;;22.70;49.50;;;;;;5083133;28;20024;-43
2024/03/03 02:20:04;;;;;;;1.98;1.08;;;22.70;49.50;;;;;;5082907;28;20036;-40
2024/03/03 02:22:30;;;;;;;1.13;0.98;;;22.70;49.50;;;;;;5082223;28;20044;-41
2024/03/03 02:24:57;;;;;;;1.42;1.00;;;22.70;49.50;;;;;;5082313;28;20041;-41
2024/03/03 02:27:23;;;;;;;1.43;1.00;;;22.60;49.60;;;;;;5075706;28;20039;-41
2024/03/03 02:29:49;;;;;;;2.00;1.10;;;22.70;49.60;;;;;;5081491;28;20048;-40
2024/03/03 02:32:15;;;;;;;2.80;0.85;;;22.70;49.50;;;;;;5081416;28;20039;-41
2024/03/03 02:34:41;;;;;;;1.25;0.98;;;22.70;49.40;;;;;;5080375;28;20039;-40
2024/03/03 02:37:08;;;;;;;1.70;0.90;;;22.70;49.50;;;;;;5074613;28;20452;-41
2024/03/03 02:39:34;;;;;;;2.53;1.15;;;22.60;49.60;;;;;;5074466;28;20035;-41
2024/03/03 02:42:00;;;;;;;2.30;1.10;;;22.60;49.50;;;;;;5076924;28;20044;-40
2024/03/03 02:44:26;;;;;;;1.52;0.95;;;22.60;49.50;;;;;;5080331;28;20028;-38
2024/03/03 02:46:52;;;;;;;1.63;1.00;;;22.60;49.60;;;;;;5082306;28;20128;-41
2024/03/03 02:49:18;;;;;;;2.88;1.05;;;22.60;49.70;;;;;;5079319;28;20036;-39
2024/03/03 02:51:45;;;;;;;2.38;0.90;;;22.70;49.60;;;;;;5080258;28;20185;-40
2024/03/03 02:54:11;;;;;;;1.38;1.02;;;22.70;49.50;;;;;;5080600;28;20096;-37
2024/03/03 02:56:37;;;;;;;1.92;1.00;;;22.70;49.50;;;;;;5080722;28;20051;-38
2024/03/03 02:59:03;;;;;;;1.02;0.93;;;22.60;49.40;;;;;;5081604;28;20038;-39
2024/03/03 03:01:49;;;;;;;1.95;1.00;;;22.60;49.40;;;;;;5081181;28;20025;-39
2024/03/03 03:04:15;;;;;;;1.45;1.00;;;22.60;49.40;;;;;;4972801;28;20046;-38
2024/03/03 03:06:42;;;;;;;2.85;1.20;;;22.60;49.60;;;;;;4980312;28;20054;-40
2024/03/03 03:09:08;;;;;;;1.65;1.08;;;22.60;49.40;;;;;;4980335;28;20090;-40
2024/03/03 03:11:37;;;;;;;0.90;0.80;;;22.60;49.30;;;;;;4980585;28;20027;-40
2024/03/03 03:14:03;;;;;;;1.00;0.85;;;22.60;49.40;;;;;;4980467;28;20110;-41
2024/03/03 03:16:29;;;;;;;1.80;0.85;;;22.60;49.40;;;;;;4979933;28;20043;-38
2024/03/03 03:18:55;;;;;;;2.08;1.10;;;22.50;49.40;;;;;;4980818;28;20030;-40
2024/03/03 03:21:26;;;;;;;1.20;0.98;;;22.50;49.40;;;;;;4979280;28;20106;-38
2024/03/03 03:23:53;;;;;;;1.52;1.10;;;22.50;49.40;;;;;;4960436;28;20045;-41
2024/03/03 03:26:19;;;;;;;0.97;0.90;;;22.60;49.40;;;;;;4980023;28;20054;-39
2024/03/03 03:28:45;;;;;;;1.10;0.90;;;22.60;49.30;;;;;;4979939;28;20384;-40
2024/03/03 03:31:11;;;;;;;1.30;1.00;;;22.60;49.30;;;;;;4977224;28;20039;-43
2024/03/03 03:33:37;;;;;;;1.30;1.00;;;22.50;49.30;;;;;;4979053;28;20090;-38
2024/03/03 03:36:10;;;;;;;1.25;0.90;;;22.50;49.30;;;;;;4976028;28;20077;-40
2024/03/03 03:38:36;;;;;;;2.05;0.85;;;22.50;49.40;;;;;;4979893;28;20090;-40
2024/03/03 03:41:03;;;;;;;1.52;1.00;;;22.50;49.40;;;;;;5008365;28;20052;-40
2024/03/03 03:43:30;;;;;;;1.63;1.10;;;22.50;49.30;;;;;;5061052;28;20124;-39
2024/03/03 03:45:56;;;;;;;2.35;1.00;;;22.50;49.30;;;;;;5061699;28;20041;-39
2024/03/03 03:48:23;;;;;;;1.23;0.93;;;22.50;49.30;;;;;;5061482;28;20036;-40
2024/03/03 03:50:50;;;;;;;1.65;1.00;;;22.50;49.90;;;;;;5061987;28;20025;-39
2024/03/03 03:53:16;;;;;;;2.53;1.00;;;22.50;49.30;;;;;;5059051;28;20044;-38
2024/03/03 03:55:43;;;;;;;1.90;1.13;;;22.40;49.30;;;;;;5053606;28;20278;-40
2024/03/03 03:58:09;;;;;;;1.15;0.95;;;22.50;49.30;;;;;;5058809;28;20052;-42
2024/03/03 04:00:35;;;;;;;1.20;0.90;;;22.50;49.30;;;;;;5059754;28;20033;-40
2024/03/03 04:03:01;;;;;;;1.92;1.20;;;22.50;49.30;;;;;;5061392;28;20029;-39
2024/03/03 04:05:27;;;;;;;1.70;1.05;;;22.50;49.30;;;;;;5062139;28;20784;-39
2024/03/03 04:07:53;;;;;;;1.20;1.00;;;22.50;49.40;;;;;;5077649;28;20070;-39
2024/03/03 04:10:19;;;;;;;1.75;1.20;;;22.40;49.30;;;;;;5066588;28;20025;-39
2024/03/03 04:12:45;;;;;;;2.45;1.00;;;22.40;49.30;;;;;;5085279;28;20055;-40
2024/03/03 04:15:15;;;;;;;1.08;0.98;;;22.40;49.30;;;;;;5083508;28;20834;-40
2024/03/03 04:17:41;;;;;;;1.45;1.05;;;22.50;49.30;;;;;;5084980;28;20058;-40
2024/03/03 04:20:08;;;;;;;1.50;1.10;;;22.50;49.30;;;;;;5085250;28;20036;-38
2024/03/03 04:22:34;;;;;;;1.40;1.10;;;22.50;49.30;;;;;;5083710;28;20090;-39
2024/03/03 04:25:00;;;;;;;1.90;1.17;;;22.40;49.30;;;;;;5082753;28;20040;-40
2024/03/03 04:27:26;;;;;;;1.40;1.00;;;22.40;49.30;;;;;;5082586;28;20033;-43
2024/03/03 04:29:52;;;;;;;1.35;1.23;;;22.40;49.30;;;;;;5075632;28;20021;-40
2024/03/03 04:32:19;;;;;;;1.50;1.25;;;22.40;49.30;;;;;;5084775;28;20032;-38
2024/03/03 04:34:45;;;;;;;1.30;1.20;;;22.50;49.40;;;;;;5084736;28;20036;-38
2024/03/03 04:37:11;;;;;;;1.95;1.13;;;22.50;49.30;;;;;;5076618;28;20048;-40
2024/03/03 04:39:37;;;;;;;1.85;1.13;;;22.50;49.30;;;;;;5081607;28;20025;-38
2024/03/03 04:42:04;;;;;;;1.60;1.27;;;22.40;49.20;;;;;;5083589;28;20066;-39
2024/03/03 04:44:30;;;;;;;2.08;1.40;;;22.40;49.30;;;;;;5065840;28;20740;-39
2024/03/03 04:46:57;;;;;;;2.20;1.53;;;22.40;49.30;;;;;;5082409;28;20028;-39
2024/03/03 04:49:23;;;;;;;1.67;1.33;;;22.40;49.40;;;;;;5081715;28;20028;-40
2024/03/03 04:51:49;;;;;;;1.95;1.48;;;22.40;49.30;;;;;;5079426;28;20281;-39
2024/03/03 04:54:15;;;;;;;1.42;1.20;;;22.50;49.40;;;;;;5080823;28;20115;-40
2024/03/03 04:56:41;;;;;;;2.45;1.40;;;22.40;49.30;;;;;;5076683;28;20059;-40
2024/03/03 04:59:08;;;;;;;1.60;1.30;;;22.40;49.30;;;;;;5079612;28;20077;-36
2024/03/03 05:01:39;;;;;;;1.52;1.40;;;22.40;49.30;;;;;;5084124;28;20033;-38
2024/03/03 05:04:05;;;;;;;2.30;1.30;;;22.40;49.30;;;;;;5083653;28;20058;-39
2024/03/03 05:06:31;;;;;;;2.65;1.38;;;22.40;49.40;;;;;;5082392;28;20051;-40
2024/03/03 05:08:57;;;;;;;3.38;1.60;;;22.40;49.30;;;;;;5076471;28;20031;-40
2024/03/03 05:11:23;;;;;;;1.90;1.48;;;22.50;49.40;;;;;;5083792;28;20039;-40
2024/03/03 05:13:49;;;;;;;2.30;1.35;;;22.50;49.40;;;;;;5076409;28;20130;-39
2024/03/03 05:16:16;;;;;;;1.42;1.20;;;22.40;49.40;;;;;;5081490;28;20132;-39
2024/03/03 05:18:42;;;;;;;1.20;1.08;;;22.40;50.00;;;;;;5075310;28;20043;-40
2024/03/03 05:21:28;;;;;;;4.15;1.50;;;22.40;49.40;;;;;;5020823;28;20037;-37
2024/03/03 05:23:54;;;;;;;2.38;1.60;;;22.40;49.40;;;;;;5017379;28;20181;-40
2024/03/03 05:26:20;;;;;;;2.97;1.67;;;22.40;49.40;;;;;;5021418;28;20052;-40
2024/03/03 05:28:46;;;;;;;1.77;1.33;;;22.40;49.30;;;;;;5020326;28;20477;-38
2024/03/03 05:31:13;;;;;;;2.47;1.50;;;22.40;49.40;;;;;;5023866;28;20040;-40
2024/03/03 05:33:40;;;;;;;2.08;1.40;;;22.40;49.40;;;;;;5021239;28;20038;-39
2024/03/03 05:36:06;;;;;;;1.20;1.10;;;22.40;49.40;;;;;;5020306;28;20056;-40
2024/03/03 05:38:32;;;;;;;1.43;1.33;;;22.40;49.50;;;;;;5019781;28;20034;-39
2024/03/03 05:40:58;;;;;;;1.63;1.40;;;22.40;49.40;;;;;;5021444;28;20113;-39
2024/03/03 05:43:24;;;;;;;2.28;1.55;;;22.40;49.40;;;;;;5020038;28;20091;-41
2024/03/03 05:45:51;;;;;;;1.97;1.57;;;22.40;49.40;;;;;;5020161;28;20041;-41
2024/03/03 05:48:17;;;;;;;1.58;1.42;;;22.40;49.40;;;;;;5020475;28;20072;-41
2024/03/03 05:50:43;;;;;;;1.58;1.20;;;22.40;49.40;;;;;;5014060;28;20030;-37
2024/03/03 05:53:09;;;;;;;1.50;1.25;;;22.40;49.40;;;;;;5016997;28;20034;-39
2024/03/03 05:55:36;;;;;;;1.77;1.50;;;22.40;49.50;;;;;;5018600;28;20085;-41
2024/03/03 05:58:02;;;;;;;2.13;1.73;;;22.40;49.50;;;;;;5032304;28;20033;-41
2024/03/03 06:00:28;;;;;;;2.80;1.25;;;22.40;49.40;;;;;;5078338;28;20040;-40
2024/03/03 06:02:54;;;;;;;1.73;1.42;;;22.40;49.40;;;;;;5078545;28;20083;-40
2024/03/03 06:05:20;;;;;;;1.77;1.38;;;22.40;49.50;;;;;;5077399;28;20047;-38
2024/03/03 06:07:46;;;;;;;1.45;1.30;;;22.40;49.50;;;;;;5081123;28;20071;-39
2024/03/03 06:10:12;;;;;;;2.25;1.48;;;22.40;49.50;;;;;;5082674;28;20032;-40
2024/03/03 06:12:38;;;;;;;1.40;1.30;;;22.40;50.00;;;;;;5079939;28;20035;-40
2024/03/03 06:15:05;;;;;;;1.50;1.27;;;22.40;49.50;;;;;;5082397;28;20029;-40
2024/03/03 06:17:31;;;;;;;1.58;1.25;;;22.40;49.40;;;;;;5082823;28;20113;-40
2024/03/03 06:19:57;;;;;;;1.75;1.40;;;22.40;49.40;;;;;;5080267;28;20024;-40
2024/03/03 06:22:23;;;;;;;1.50;1.40;;;22.40;49.50;;;;;;5081060;28;20080;-39
2024/03/03 06:24:50;;;;;;;1.38;1.27;;;22.40;49.50;;;;;;5077019;28;20378;-41
2024/03/03 06:27:16;;;;;;;1.63;1.17;;;22.40;49.50;;;;;;5082401;28;20032;-44
2024/03/03 06:29:42;;;;;;;2.58;1.60;;;22.40;49.60;;;;;;5081708;28;20032;-40
2024/03/03 06:32:08;;;;;;;2.03;1.27;;;22.40;49.60;;;;;;5081094;28;20029;-39
2024/03/03 06:34:34;;;;;;;1.63;1.20;;;22.40;49.50;;;;;;5081788;28;20028;-40
2024/03/03 06:37:01;;;;;;;1.50;1.38;;;22.50;49.50;;;;;;5075545;28;20605;-41
2024/03/03 06:39:27;;;;;;;1.33;1.10;;;22.40;49.50;;;;;;5081228;28;20043;-39
2024/03/03 06:41:53;;;;;;;1.65;1.40;;;22.40;49.50;;;;;;5080311;28;20021;-38
2024/03/03 06:44:19;;;;;;;1.75;1.40;;;22.40;49.50;;;;;;5067615;28;20075;-40
2024/03/03 06:46:45;;;;;;;1.45;1.08;;;22.40;49.60;;;;;;5069320;28;20044;-39
2024/03/03 06:49:11;;;;;;;1.25;1.15;;;22.40;49.60;;;;;;5066153;28;20037;-38
2024/03/03 06:51:38;;;;;;;1.10;0.95;;;22.40;49.60;;;;;;5068940;28;20020;-39
2024/03/03 06:54:06;;;;;;;1.07;1.03;;;22.40;49.50;;;;;;5077869;28;20035;-40
2024/03/03 06:56:32;;;;;;;1.50;1.15;;;22.40;49.60;;;;;;5081878;28;20036;-36
2024/03/03 06:59:00;;;;;;;1.23;1.00;;;22.40;49.60;;;;;;5056101;28;20039;-40
2024/03/03 07:01:26;;;;;;;1.13;1.05;;;22.40;49.60;;;;;;5081688;28;20043;-39
2024/03/03 07:06:18;;;;;;;1.20;1.10;;;22.40;49.60;;;;;;5077662;28;20044;-40
2024/03/03 07:08:44;;;;;;;1.02;0.93;;;22.40;49.60;;;;;;5081623;28;20050;-39
2024/03/03 07:11:13;;;;;;;1.48;1.05;;;22.40;49.60;;;;;;5079808;28;20044;-40
2024/03/03 07:13:39;;;;;;;0.98;0.88;;;22.40;49.60;;;;;;5081195;28;20020;-40
2024/03/03 07:16:06;;;;;;;1.10;0.88;;;22.40;49.70;;;;;;5081715;28;20098;-39
2024/03/03 07:18:32;;;;;;;0.88;0.88;;;22.40;49.70;;;;;;5081833;28;20036;-39
2024/03/03 07:20:58;;;;;;;1.17;0.90;;;22.40;49.70;;;;;;5081170;28;20045;-39
2024/03/03 07:23:24;;;;;;;1.23;1.13;;;22.40;49.60;;;;;;5077510;28;20032;-40
2024/03/03 07:25:50;;;;;;;1.05;0.95;;;22.40;49.60;;;;;;5080800;28;20477;-40
2024/03/03 07:28:16;;;;;;;0.80;0.80;;;22.40;49.60;;;;;;5080303;28;20135;-40
2024/03/03 07:30:42;;;;;;;0.90;0.90;;;22.40;49.70;;;;;;5077908;28;20035;-38
2024/03/03 07:33:08;;;;;;;0.80;0.80;;;22.40;49.70;;;;;;5081753;28;20029;-38
2024/03/03 07:35:34;;;;;;;0.93;0.73;;;22.40;49.70;;;;;;5073378;28;20106;-40
2024/03/03 07:38:01;;;;;;;0.70;0.70;;;22.40;49.70;;;;;;5077044;28;20039;-40
2024/03/03 07:40:33;;;;;;;0.80;0.80;;;22.40;49.70;;;;;;5080925;28;20092;-40
2024/03/03 07:42:59;;;;;;;0.77;0.77;;;22.50;49.60;;;;;;5082110;28;20033;-40
2024/03/03 07:45:25;;;;;;;0.77;0.68;;;22.40;49.60;;;;;;5078010;28;20512;-39
2024/03/03 07:47:51;;;;;;;1.10;0.88;;;22.40;49.70;;;;;;5075821;28;20039;-39
2024/03/03 07:50:18;;;;;;;0.95;0.70;;;22.40;49.70;;;;;;5081869;28;20056;-39
2024/03/03 07:52:44;;;;;;;0.70;0.70;;;22.40;49.70;;;;;;5078543;28;20020;-39
2024/03/03 07:55:10;;;;;;;0.53;0.53;;;22.40;49.70;;;;;;5085326;28;20060;-39
2024/03/03 07:57:36;;;;;;;0.93;0.90;;;22.40;49.70;;;;;;5085348;28;20032;-41
2024/03/03 08:00:06;;;;;;;0.90;0.77;;;22.40;49.70;;;;;;5083122;28;20039;-39
2024/03/03 08:02:32;;;;;;;0.60;0.60;;;22.40;49.60;;;;;;5084594;28;20047;-42
2024/03/03 08:04:59;;;;;;;0.90;0.73;;;22.40;49.70;;;;;;5082309;28;20039;-43
2024/03/03 08:07:25;;;;;;;0.80;0.75;;;22.40;49.70;;;;;;5075426;28;20049;-44
2024/03/03 08:09:52;;;;;;;0.80;0.80;;;22.30;49.70;;;;;;5060664;28;20033;-41
2024/03/03 08:12:18;;;;;;;0.52;0.52;;;22.40;49.70;;;;;;5064907;28;20043;-38
2024/03/03 08:14:44;;;;;;;0.50;0.50;;;22.40;49.70;;;;;;5057990;28;20040;-40
2024/03/03 08:17:11;;;;;;;0.73;0.73;;;22.40;49.70;;;;;;5064899;28;20040;-39
2024/03/03 08:19:37;;;;;;;0.90;0.70;;;22.40;49.70;;;;;;5064689;28;20033;-40
2024/03/03 08:22:03;;;;;;;0.60;0.60;;;22.40;49.70;;;;;;5065006;28;20095;-38
2024/03/03 08:24:29;;;;;;;0.50;0.50;;;22.40;49.70;;;;;;5064230;28;20033;-34
2024/03/03 08:26:58;;;;;;;0.65;0.60;;;22.40;49.80;;;;;;5064718;28;20040;-33
2024/03/03 08:29:24;;;;;;;2.05;0.60;;;22.40;49.70;;;;;;5063992;28;20029;-33
2024/03/03 08:31:51;;;;;;;0.70;0.63;;;22.40;49.70;;;;;;5061642;28;20028;-34
2024/03/03 08:34:17;;;;;;;0.65;0.60;;;22.40;49.70;;;;;;5062794;28;20025;-34
2024/03/03 08:36:43;;;;;;;0.70;0.70;;;22.40;49.70;;;;;;5064922;28;20029;-33
2024/03/03 08:39:12;;;;;;;0.75;0.60;;;22.40;49.80;;;;;;5046031;28;20028;-34
2024/03/03 08:41:43;;;;;;;0.63;0.63;;;22.40;49.80;;;;;;5064439;28;20028;-34
2024/03/03 08:44:09;;;;;;;0.60;0.60;;;22.30;49.80;;;;;;5064180;28;20595;-33
2024/03/03 08:46:36;;;;;;;0.40;0.40;;;22.40;49.70;;;;;;5064270;28;20037;-34
2024/03/03 08:49:02;;;;;;;0.60;0.60;;;22.40;49.70;;;;;;5063735;28;20044;-33
2024/03/03 08:51:28;;;;;;;0.50;0.50;;;22.40;49.70;;;;;;5058379;28;20033;-33
2024/03/03 08:53:54;;;;;;;0.47;0.47;;;22.40;49.70;;;;;;5063770;28;20052;-34
2024/03/03 08:56:20;;;;;;;0.50;0.40;;;22.40;49.80;;;;;;5063923;28;20432;-33
2024/03/03 08:58:46;;;;;;;0.40;0.40;;;22.40;49.80;;;;;;5062046;28;20075;-34
2024/03/03 09:01:14;;;;;;;0.50;0.50;;;22.40;49.80;;;;;;5060720;28;20056;-34
2024/03/03 09:03:43;;;;;;;0.40;0.40;;;22.40;49.70;;;;;;5062500;28;20029;-34
2024/03/03 09:06:09;;;;;;;0.50;0.47;;;22.40;49.70;;;;;;5060091;28;20047;-34
2024/03/03 09:08:37;;;;;;;0.60;0.40;;;22.40;49.70;;;;;;5081724;28;20048;-33
2024/03/03 09:11:06;;;;;;;0.50;0.50;;;22.40;50.30;;;;;;5084055;28;20078;-33
2024/03/03 09:13:35;;;;;;;0.50;0.47;;;22.40;49.80;;;;;;5083311;28;20383;-33
2024/03/03 09:16:01;;;;;;;0.40;0.40;;;22.40;49.80;;;;;;5080916;28;20058;-33
2024/03/03 09:18:27;;;;;;;0.40;0.40;;;22.40;49.80;;;;;;5082230;28;20033;-33
2024/03/03 09:20:53;;;;;;;0.68;0.50;;;22.40;49.80;;;;;;5084113;28;20029;-34
2024/03/03 09:23:19;;;;;;;2.05;0.50;;;22.40;49.70;;;;;;5080976;28;20041;-33
2024/03/03 09:25:46;;;;;;;0.40;0.40;;;22.40;49.80;;;;;;5083449;28;20037;-33
2024/03/03 09:28:12;;;;;;;0.40;0.40;;;22.40;49.80;;;;;;5077681;28;20043;-33
2024/03/03 09:30:38;;;;;;;0.50;0.50;;;22.40;49.80;;;;;;5083422;28;20512;-32
2024/03/03 09:33:04;;;;;;;0.50;0.50;;;22.30;49.80;;;;;;5083542;28;20032;-33
2024/03/03 09:35:30;;;;;;;0.40;0.40;;;22.40;49.80;;;;;;5059839;28;20025;-33
2024/03/03 09:37:56;;;;;;;0.40;0.40;;;22.40;49.80;;;;;;5083544;28;20024;-33
2024/03/03 09:40:22;;;;;;;0.30;0.30;;;22.40;49.70;;;;;;5082488;28;20028;-33
2024/03/03 09:42:51;;;;;;;0.50;0.50;;;22.40;49.80;;;;;;5083346;28;20021;-32
2024/03/03 09:45:20;;;;;;;0.40;0.40;;;22.40;49.90;;;;;;5065291;28;20040;-33
2024/03/03 09:47:46;;;;;;;0.50;0.50;;;22.40;50.40;;;;;;5076671;28;20026;-33
2024/03/03 09:50:12;;;;;;;0.57;0.50;;;22.30;49.80;;;;;;5061371;28;20028;-33
2024/03/03 09:52:42;;;;;;;0.40;0.40;;;22.40;49.80;;;;;;5083029;28;20024;-33
2024/03/03 09:55:11;;;;;;;0.40;0.40;;;22.40;49.80;;;;;;5062948;28;20061;-32
2024/03/03 09:57:38;;;;;;;0.40;0.30;;;22.40;49.80;;;;;;5083029;28;20044;-33
2024/03/03 10:00:06;;;;;;;0.35;0.35;;;22.40;49.80;;;;;;5079738;28;20025;-33
2024/03/03 10:02:34;;;;;;;0.85;0.35;;;22.40;49.90;;;;;;5079934;28;20095;-33
2024/03/03 10:05:00;;;;;;;0.40;0.40;;;22.40;49.90;;;;;;5064701;28;20043;-33
2024/03/03 10:07:26;;;;;;;0.60;0.40;;;22.30;49.90;;;;;;5082475;28;20049;-33
2024/03/03 10:10:05;;;;;;;0.55;0.55;;;22.40;49.90;;;;;;5064491;28;20020;-33
2024/03/03 10:12:32;;;;;;;0.50;0.50;;;22.40;49.90;;;;;;5082526;28;20044;-32
2024/03/03 10:14:59;;;;;;;0.50;0.47;;;22.40;49.80;;;;;;5082773;28;20028;-33
2024/03/03 10:17:25;;;;;;;0.40;0.40;;;22.40;49.80;;;;;;5082348;28;20025;-34
2024/03/03 10:19:51;;;;;;;0.50;0.45;;;22.40;49.90;;;;;;5082553;28;20070;-33
2024/03/03 10:22:18;;;;;;;0.40;0.30;;;22.40;49.90;;;;;;5082323;28;20082;-33
2024/03/03 10:24:45;;;;;;;1.17;0.68;;;22.40;50.00;;;;;;5077654;28;20561;-33
2024/03/03 10:27:18;;;;;;;0.80;0.50;;;22.40;49.90;;;;;;5082435;28;20047;-34
2024/03/03 10:29:45;;;;;;;0.65;0.60;;;22.40;49.90;;;;;;5074523;28;20036;-33
2024/03/03 10:32:12;;;;;;;0.50;0.50;;;22.40;49.80;;;;;;5078654;28;20033;-33
2024/03/03 10:34:42;;;;;;;0.47;0.40;;;22.40;49.90;;;;;;5076773;28;20021;-33
2024/03/03 10:37:08;;;;;;;0.65;0.52;;;22.40;49.90;;;;;;5077545;28;20052;-33
2024/03/03 10:39:35;;;;;;;0.50;0.50;;;22.40;49.90;;;;;;5055686;28;20093;-33
2024/03/03 10:42:09;;;;;;;0.80;0.50;;;22.40;49.90;;;;;;5073355;28;20104;-33
2024/03/03 10:44:35;;;;;;;0.55;0.55;;;22.40;49.90;;;;;;5072894;28;20035;-34
2024/03/03 10:47:01;;;;;;;2.20;0.60;;;22.40;49.90;;;;;;5074243;28;20032;-33
2024/03/03 10:49:28;;;;;;;0.60;0.57;;;22.40;49.80;;;;;;5062677;28;20032;-33
2024/03/03 10:52:00;;;;;;;0.68;0.50;;;22.40;49.90;;;;;;5075910;28;20040;-33
2024/03/03 10:54:27;;;;;;;0.57;0.50;;;22.40;49.90;;;;;;5079370;28;20041;-33
2024/03/03 10:56:53;;;;;;;1.02;0.60;;;22.40;50.00;;;;;;5081546;28;20072;-33
2024/03/03 10:59:19;;;;;;;0.63;0.60;;;22.30;50.00;;;;;;5055803;28;20059;-33
2024/03/03 11:01:45;;;;;;;0.50;0.47;;;22.40;49.90;;;;;;5060276;28;20031;-33
2024/03/03 11:04:11;;;;;;;0.40;0.40;;;22.40;49.90;;;;;;5058016;28;20109;-34
2024/03/03 11:06:38;;;;;;;0.50;0.50;;;22.40;49.90;;;;;;5069476;28;20044;-35
2024/03/03 11:09:04;;;;;;;0.88;0.68;;;22.40;49.90;;;;;;5042789;28;20089;-34
2024/03/03 11:11:32;;;;;;;0.40;0.38;;;22.40;49.90;;;;;;5043277;28;20045;-35
2024/03/03 11:14:12;;;;;;;0.90;0.70;;;22.40;49.90;;;;;;5043522;28;20021;-34
2024/03/03 11:16:39;;;;;;;0.73;0.70;;;22.30;50.00;;;;;;5043614;28;20055;-33
2024/03/03 11:19:19;;;;;;;5.20;0.70;;;22.40;50.00;;;;;;5031968;28;20034;-33
2024/03/03 11:21:51;;;;;;;0.60;0.60;;;22.40;49.90;;;;;;5054465;28;20040;-32
2024/03/03 11:24:30;;;;;;;0.80;0.60;;;22.40;49.90;;;;;;5054141;28;20117;-34
2024/03/03 11:27:04;;;;;;;0.60;0.60;;;22.40;50.00;;;;;;5044998;28;20537;-34
2024/03/03 11:29:31;;;;;;;1.15;0.60;;;22.40;50.00;;;;;;5058116;28;20025;-34
2024/03/03 11:31:57;;;;;;;0.93;0.68;;;22.40;50.00;;;;;;5058089;28;20035;-34
2024/03/03 11:34:23;;;;;;;1.13;0.70;;;22.30;50.00;;;;;;5060337;28;20033;-34
2024/03/03 11:36:49;;;;;;;0.60;0.60;;;22.40;49.90;;;;;;5061827;28;20027;-33
2024/03/03 11:39:16;;;;;;;0.60;0.60;;;22.40;49.90;;;;;;5041194;28;20028;-34
2024/03/03 11:41:42;;;;;;;1.02;0.70;;;22.40;49.90;;;;;;5060324;28;20110;-34
2024/03/03 11:44:36;;;;;;;1.00;0.63;;;22.40;49.90;;;;;;5060699;28;20037;-34
2024/03/03 11:47:03;;;;;;;0.85;0.77;;;22.40;50.00;;;;;;5060243;28;20041;-33
2024/03/03 11:49:42;;;;;;;1.52;0.80;;;22.40;50.00;;;;;;5043155;28;20553;-33
2024/03/03 11:52:09;;;;;;;1.00;0.90;;;22.30;50.00;;;;;;5061689;28;20517;-33
2024/03/03 11:54:41;;;;;;;0.80;0.80;;;22.40;50.00;;;;;;5039720;28;20025;-33
2024/03/03 11:57:09;;;;;;;0.73;0.73;;;22.40;49.90;;;;;;5056584;28;20068;-33
2024/03/03 11:59:44;;;;;;;0.60;0.60;;;22.40;49.90;;;;;;5057061;28;20029;-33
2024/03/03 12:02:17;;;;;;;0.73;0.70;;;22.40;50.00;;;;;;5060696;28;20445;-33
2024/03/03 12:04:46;;;;;;;1.08;0.70;;;22.40;50.00;;;;;;5040655;28;20086;-33
2024/03/03 12:07:20;;;;;;;1.15;0.80;;;22.30;50.00;;;;;;5057204;28;20117;-34
2024/03/03 12:09:46;;;;;;;1.10;1.00;;;22.30;50.00;;;;;;5053904;28;20025;-34
2024/03/03 12:12:12;;;;;;;0.73;0.70;;;22.40;50.00;;;;;;5018558;28;20477;-34
2024/03/03 12:14:39;;;;;;;0.80;0.73;;;22.40;49.90;;;;;;5060209;28;20275;-34
2024/03/03 12:17:25;;;;;;;1.23;0.90;;;22.40;50.00;;;;;;4979154;28;20056;-34
2024/03/03 12:19:54;;;;;;;0.90;0.88;;;22.40;50.00;;;;;;4979643;28;20062;-33
2024/03/03 12:22:21;;;;;;;0.70;0.70;;;22.40;50.10;;;;;;4979119;28;20150;-32
2024/03/03 12:24:55;;;;;;;1.40;1.00;;;22.30;50.10;;;;;;4966009;28;20031;-32
2024/03/03 12:27:21;;;;;;;1.20;1.00;;;22.30;50.10;;;;;;4980399;28;20047;-33
2024/03/03 12:30:09;;;;;;;1.42;0.80;;;22.40;50.10;;;;;;4982797;28;20044;-34
2024/03/03 12:32:36;;;;;;;1.20;1.08;;;22.40;50.00;;;;;;4980636;28;20075;-33
2024/03/03 12:35:02;;;;;;;1.60;1.02;;;22.40;50.00;;;;;;4975754;28;20054;-33
2024/03/03 12:37:29;;;;;;;0.90;0.90;;;22.40;50.10;;;;;;4973953;28;20034;-33
2024/03/03 12:39:56;;;;;;;1.02;0.93;;;22.40;50.10;;;;;;4965080;28;20035;-33
2024/03/03 12:42:22;;;;;;;0.85;0.80;;;22.40;50.10;;;;;;4976168;28;20067;-33
2024/03/03 12:44:49;;;;;;;1.30;1.20;;;22.40;50.10;;;;;;4978471;28;20039;-33
2024/03/03 12:47:15;;;;;;;2.13;0.90;;;22.40;50.10;;;;;;4976711;28;20089;-34
2024/03/03 12:49:44;;;;;;;1.25;0.90;;;22.40;50.00;;;;;;4982593;28;20031;-33